Time;durP1;ratioP1;P1;durP2;ratioP2;P2;SDS_P1;SDS_P2;PMS_P1;PMS_P2;Temp;Humidity;BMP_temperature;BMP_pressure;BME280_temperature;BME280_humidity;BME280_pressure;Samples;Min_cycle;Max_cycle;Signal;HPM_P1;HPM_P2
2022/10/11 00:00:47;;;;;;;8.68;4.53;;;12.70;99.90;;;;;;5047880;28;20542;-54
2022/10/11 00:03:13;;;;;;;11.23;5.63;;;12.80;99.90;;;;;;5029015;28;20052;-54
2022/10/11 00:05:39;;;;;;;12.40;4.90;;;12.90;99.90;;;;;;5047694;28;20030;-60
2022/10/11 00:08:05;;;;;;;9.20;4.57;;;13.00;99.90;;;;;;5047266;28;20670;-54
2022/10/11 00:10:32;;;;;;;12.07;4.68;;;13.10;99.90;;;;;;5047232;28;20025;-55
2022/10/11 00:12:58;;;;;;;6.43;4.10;;;13.20;99.90;;;;;;5047386;28;20083;-54
2022/10/11 00:15:24;;;;;;;15.73;4.55;;;13.20;99.90;;;;;;5047388;28;20465;-54
2022/10/11 00:17:49;;;;;;;11.73;4.50;;;13.20;99.90;;;;;;5047507;28;20028;-54
2022/10/11 00:20:15;;;;;;;8.98;4.45;;;13.30;99.90;;;;;;5044668;28;20495;-54
2022/10/11 00:22:41;;;;;;;14.20;4.00;;;13.30;99.90;;;;;;5047518;28;20041;-54
2022/10/11 00:25:10;;;;;;;13.13;4.43;;;13.30;99.90;;;;;;5047278;28;20120;-54
2022/10/11 00:27:36;;;;;;;12.98;4.15;;;13.20;99.90;;;;;;5026137;28;20109;-54
2022/10/11 00:30:04;;;;;;;7.82;4.38;;;13.20;99.90;;;;;;5047756;28;20698;-54
2022/10/11 00:32:32;;;;;;;8.57;4.10;;;13.20;99.90;;;;;;5048214;28;20491;-54
2022/10/11 00:35:03;;;;;;;8.35;4.45;;;13.20;99.90;;;;;;5048736;28;20059;-54
2022/10/11 00:37:29;;;;;;;8.35;4.38;;;13.20;99.90;;;;;;5048481;28;20761;-54
2022/10/11 00:39:55;;;;;;;9.80;4.20;;;13.10;99.90;;;;;;5048825;28;20037;-54
2022/10/11 00:42:21;;;;;;;8.43;4.03;;;13.10;99.90;;;;;;5048819;28;20033;-54
2022/10/11 00:44:48;;;;;;;8.33;4.43;;;13.10;99.90;;;;;;5056077;28;20029;-54
2022/10/11 00:47:20;;;;;;;9.57;4.55;;;13.10;99.90;;;;;;5047861;28;20029;-54
2022/10/11 00:49:53;;;;;;;12.05;4.55;;;13.10;99.90;;;;;;5069018;28;20047;-54
2022/10/11 00:52:30;;;;;;;11.82;5.32;;;13.00;99.90;;;;;;5068747;28;20023;-54
2022/10/11 00:55:01;;;;;;;9.35;3.97;;;13.00;99.90;;;;;;5050746;28;20033;-54
2022/10/11 00:57:30;;;;;;;8.20;3.95;;;12.90;99.90;;;;;;5069068;28;20099;-54
2022/10/11 00:59:56;;;;;;;7.72;4.03;;;12.90;99.90;;;;;;5069064;28;20025;-54
2022/10/11 01:02:23;;;;;;;9.18;4.60;;;12.90;99.90;;;;;;5068657;28;20052;-54
2022/10/11 01:04:50;;;;;;;8.20;4.50;;;13.00;99.90;;;;;;5056965;28;20033;-54
2022/10/11 01:07:18;;;;;;;9.27;4.10;;;12.90;99.90;;;;;;5048403;28;20022;-54
2022/10/11 01:09:44;;;;;;;10.65;4.75;;;12.90;99.90;;;;;;5048692;28;20029;-54
2022/10/11 01:12:22;;;;;;;9.18;4.05;;;12.90;99.90;;;;;;5048838;28;20021;-53
2022/10/11 01:15:20;;;;;;;7.20;4.13;;;12.80;99.90;;;;;;5048807;28;20159;-54
2022/10/11 01:17:58;;;;;;;10.80;4.75;;;12.70;99.90;;;;;;5048355;28;20036;-54
2022/10/11 01:20:43;;;;;;;9.68;4.15;;;12.70;99.90;;;;;;5048379;28;20571;-54
2022/10/11 01:23:24;;;;;;;8.27;4.22;;;12.70;99.90;;;;;;5048362;28;20528;-54
2022/10/11 01:26:14;;;;;;;7.00;3.97;;;12.60;99.90;;;;;;5047989;28;20474;-54
2022/10/11 01:29:35;;;;;;;12.50;4.45;;;12.60;99.90;;;;;;5065260;28;20064;-54
2022/10/11 01:32:06;;;;;;;8.18;4.25;;;12.60;99.90;;;;;;5053813;28;20090;-53
2022/10/11 01:34:40;;;;;;;8.00;4.30;;;12.50;99.90;;;;;;5068615;28;20064;-54
2022/10/11 01:37:23;;;;;;;13.85;4.05;;;12.50;99.90;;;;;;5068710;28;20059;-54
2022/10/11 01:40:01;;;;;;;12.93;4.88;;;12.50;99.90;;;;;;5068412;28;20028;-54
2022/10/11 01:42:28;;;;;;;10.05;4.35;;;12.50;99.90;;;;;;5028518;28;20049;-54
2022/10/11 01:44:56;;;;;;;13.55;4.53;;;12.50;99.90;;;;;;5029928;28;20095;-54
2022/10/11 01:47:23;;;;;;;13.48;4.40;;;12.50;99.90;;;;;;5014155;28;20385;-54
2022/10/11 01:49:57;;;;;;;13.23;4.50;;;12.50;99.90;;;;;;5032010;28;20493;-54
2022/10/11 01:52:24;;;;;;;10.38;4.40;;;12.50;99.90;;;;;;5032112;28;20112;-54
2022/10/11 01:55:12;;;;;;;10.70;4.60;;;12.50;99.90;;;;;;5032051;28;20033;-53
2022/10/11 01:57:59;;;;;;;9.40;4.47;;;12.60;99.90;;;;;;5031725;28;20075;-54
2022/10/11 02:00:30;;;;;;;6.90;4.22;;;12.50;99.90;;;;;;5031967;28;20129;-54
2022/10/11 02:03:23;;;;;;;7.32;4.20;;;12.60;99.90;;;;;;5031720;28;20033;-54
2022/10/11 02:05:57;;;;;;;8.25;4.55;;;12.50;99.90;;;;;;5031795;28;20489;-54
2022/10/11 02:08:47;;;;;;;8.00;3.80;;;12.50;99.90;;;;;;5013717;28;20393;-54
2022/10/11 02:11:27;;;;;;;19.95;5.18;;;12.50;99.90;;;;;;5031768;28;20025;-53
2022/10/11 02:13:58;;;;;;;6.20;3.80;;;12.50;99.90;;;;;;5031738;28;20029;-53
2022/10/11 02:16:40;;;;;;;9.07;4.18;;;12.50;99.90;;;;;;5031242;28;20485;-54
2022/10/11 02:19:07;;;;;;;7.82;3.95;;;12.50;99.90;;;;;;5031403;28;20412;-54
2022/10/11 02:21:35;;;;;;;;;;;12.50;99.90;;;;;;5031865;28;20103;-54
2022/10/11 02:24:10;;;;;;;9.43;4.88;;;12.40;99.90;;;;;;5031656;28;19917;-54
2022/10/11 02:26:40;;;;;;;6.50;4.07;;;12.40;99.90;;;;;;5031160;28;20033;-53
2022/10/11 02:29:10;;;;;;;10.32;4.18;;;12.40;99.90;;;;;;5031230;28;20050;-54
2022/10/11 02:31:36;;;;;;;7.40;4.43;;;12.40;99.90;;;;;;5031232;28;20033;-54
2022/10/11 02:34:24;;;;;;;11.55;6.32;;;12.40;99.90;;;;;;5031308;28;20060;-54
2022/10/11 02:37:00;;;;;;;7.93;4.35;;;12.40;99.90;;;;;;5021512;28;20041;-54
2022/10/11 02:39:57;;;;;;;8.70;4.55;;;12.40;99.90;;;;;;5013304;28;20037;-54
2022/10/11 02:42:29;;;;;;;12.60;5.07;;;12.40;99.90;;;;;;5031193;28;20465;-54
2022/10/11 02:45:06;;;;;;;11.60;4.43;;;12.50;99.90;;;;;;5030850;28;20042;-53
2022/10/11 02:47:33;;;;;;;8.52;4.18;;;12.40;99.90;;;;;;5031067;28;20029;-54
2022/10/11 02:49:59;;;;;;;10.90;5.03;;;12.40;99.90;;;;;;5030723;28;20033;-54
2022/10/11 02:52:25;;;;;;;10.85;4.68;;;12.40;99.90;;;;;;5031201;28;20025;-54
2022/10/11 02:54:51;;;;;;;10.85;4.13;;;12.30;99.90;;;;;;5030631;28;20033;-53
2022/10/11 02:57:17;;;;;;;9.80;3.72;;;12.30;99.90;;;;;;5029829;28;20024;-54
2022/10/11 02:59:42;;;;;;;12.15;4.32;;;12.30;99.90;;;;;;5030947;28;20083;-54
2022/10/11 03:02:08;;;;;;;8.93;4.18;;;12.30;99.90;;;;;;5030780;28;20439;-53
2022/10/11 03:04:34;;;;;;;10.85;4.63;;;12.30;99.90;;;;;;5030339;28;20041;-54
2022/10/11 03:06:59;;;;;;;7.82;3.97;;;12.30;99.90;;;;;;5030512;28;20025;-54
2022/10/11 03:09:25;;;;;;;9.23;4.30;;;12.20;99.90;;;;;;5030399;28;20041;-54
2022/10/11 03:11:51;;;;;;;7.13;3.90;;;12.30;99.90;;;;;;5030375;28;20087;-54
2022/10/11 03:14:16;;;;;;;11.07;4.40;;;12.20;99.90;;;;;;5030427;28;20132;-55
2022/10/11 03:16:42;;;;;;;9.30;3.88;;;12.20;99.90;;;;;;5041870;28;20129;-54
2022/10/11 03:19:07;;;;;;;8.93;4.32;;;12.20;99.90;;;;;;5052104;28;20072;-53
2022/10/11 03:21:33;;;;;;;8.30;4.00;;;12.20;99.90;;;;;;5070240;28;20028;-54
2022/10/11 03:23:59;;;;;;;12.98;4.65;;;12.20;99.90;;;;;;5070097;28;20033;-54
2022/10/11 03:26:24;;;;;;;12.73;4.70;;;12.20;99.90;;;;;;5070232;28;20559;-54
2022/10/11 03:28:50;;;;;;;8.55;4.55;;;12.30;99.90;;;;;;5069929;28;20052;-54
2022/10/11 03:31:20;;;;;;;10.50;4.45;;;12.20;99.90;;;;;;5069817;28;20024;-54
2022/10/11 03:33:46;;;;;;;15.57;4.82;;;12.20;99.90;;;;;;5069995;28;20479;-54
2022/10/11 03:36:12;;;;;;;11.30;4.72;;;12.20;99.90;;;;;;5070325;28;20035;-55
2022/10/11 03:38:37;;;;;;;11.20;5.20;;;12.30;99.90;;;;;;5051869;28;20025;-53
2022/10/11 03:41:03;;;;;;;11.93;4.90;;;12.30;99.90;;;;;;5061158;28;20059;-54
2022/10/11 03:43:29;;;;;;;10.57;4.43;;;12.30;99.90;;;;;;5049634;28;20661;-54
2022/10/11 03:45:54;;;;;;;16.02;4.82;;;12.30;99.90;;;;;;5049459;28;20025;-54
2022/10/11 03:48:20;;;;;;;9.88;4.07;;;12.20;99.90;;;;;;5049575;28;20024;-54
2022/10/11 03:50:47;;;;;;;11.25;4.13;;;12.30;99.90;;;;;;5049763;28;20108;-54
2022/10/11 03:53:13;;;;;;;8.35;4.15;;;12.30;99.90;;;;;;5049357;28;20739;-55
2022/10/11 03:55:40;;;;;;;8.40;3.75;;;12.30;99.90;;;;;;5049623;28;20037;-55
2022/10/11 03:58:06;;;;;;;9.50;4.30;;;12.20;99.90;;;;;;5049383;28;20115;-55
2022/10/11 04:00:33;;;;;;;8.30;3.70;;;12.20;99.90;;;;;;5049386;28;20025;-55
2022/10/11 04:02:59;;;;;;;11.32;4.20;;;12.30;99.90;;;;;;5049438;28;20555;-55
2022/10/11 04:05:25;;;;;;;7.75;4.38;;;12.20;99.90;;;;;;5049200;28;20068;-54
2022/10/11 04:07:51;;;;;;;9.00;4.63;;;12.20;99.90;;;;;;5031098;28;20120;-54
2022/10/11 04:10:17;;;;;;;10.93;4.25;;;12.20;99.90;;;;;;5049226;28;20021;-54
2022/10/11 04:12:42;;;;;;;7.97;3.92;;;12.20;99.90;;;;;;5049206;28;20036;-55
2022/10/11 04:15:11;;;;;;;9.30;4.65;;;12.20;99.90;;;;;;5049190;28;20033;-54
2022/10/11 04:17:37;;;;;;;10.70;4.70;;;12.10;99.90;;;;;;5049096;28;20565;-55
2022/10/11 04:20:03;;;;;;;10.05;4.03;;;12.10;99.90;;;;;;5048972;28;20044;-55
2022/10/11 04:22:29;;;;;;;6.95;3.95;;;12.20;99.90;;;;;;5049150;28;20701;-55
2022/10/11 04:24:54;;;;;;;8.90;5.00;;;12.10;99.90;;;;;;5048998;28;20625;-54
2022/10/11 04:27:20;;;;;;;11.60;5.57;;;12.00;99.90;;;;;;5054801;28;20415;-54
2022/10/11 04:29:46;;;;;;;12.75;6.28;;;12.00;99.90;;;;;;5069186;28;20104;-55
2022/10/11 04:32:11;;;;;;;11.68;6.72;;;12.00;99.90;;;;;;5069201;28;20107;-55
2022/10/11 04:34:37;;;;;;;16.05;6.95;;;11.90;99.90;;;;;;5050471;28;20353;-58
2022/10/11 04:37:03;;;;;;;11.98;6.68;;;11.90;99.90;;;;;;5051147;28;20032;-58
2022/10/11 04:39:28;;;;;;;22.05;7.25;;;11.90;99.90;;;;;;5069056;28;20056;-56
2022/10/11 04:41:54;;;;;;;16.63;7.10;;;11.80;99.90;;;;;;5068688;28;20103;-59
2022/10/11 04:44:20;;;;;;;11.82;7.00;;;11.80;99.90;;;;;;5068822;28;20177;-58
2022/10/11 04:46:45;;;;;;;14.32;7.32;;;11.60;99.90;;;;;;5069187;28;20031;-58
2022/10/11 04:49:11;;;;;;;16.15;6.40;;;11.60;99.90;;;;;;5069057;28;20484;-59
2022/10/11 04:51:36;;;;;;;17.83;8.40;;;11.50;99.90;;;;;;5068800;28;20029;-55
2022/10/11 04:54:02;;;;;;;15.55;7.38;;;11.40;99.90;;;;;;5069061;28;20035;-55
2022/10/11 04:56:29;;;;;;;12.82;6.40;;;11.40;99.90;;;;;;5068552;28;20029;-54
2022/10/11 04:58:55;;;;;;;14.60;6.88;;;11.30;99.90;;;;;;5068611;28;20028;-55
2022/10/11 05:01:20;;;;;;;17.13;7.93;;;11.20;99.90;;;;;;5068887;28;20032;-55
2022/10/11 05:03:47;;;;;;;20.80;8.23;;;11.20;99.90;;;;;;5068619;28;20153;-55
2022/10/11 05:06:12;;;;;;;21.40;8.38;;;11.20;99.90;;;;;;5068589;28;20079;-55
2022/10/11 05:08:38;;;;;;;14.38;7.70;;;11.20;99.90;;;;;;5068592;28;20439;-55
2022/10/11 05:11:07;;;;;;;15.55;7.60;;;11.10;99.90;;;;;;5068797;28;20029;-54
2022/10/11 05:13:34;;;;;;;15.27;7.68;;;11.20;99.90;;;;;;5068421;28;20522;-56
2022/10/11 05:16:01;;;;;;;15.70;8.70;;;11.20;99.90;;;;;;5068569;28;20050;-55
2022/10/11 05:18:27;;;;;;;17.50;8.40;;;11.20;99.90;;;;;;5068679;28;20036;-54
2022/10/11 05:21:05;;;;;;;21.60;8.75;;;11.20;99.90;;;;;;5071654;28;20032;-55
2022/10/11 05:23:32;;;;;;;19.15;7.35;;;11.20;99.90;;;;;;5072704;28;20037;-54
2022/10/11 05:25:58;;;;;;;16.75;8.30;;;11.20;99.90;;;;;;5072202;28;20146;-54
2022/10/11 05:28:24;;;;;;;14.10;8.27;;;11.30;99.90;;;;;;5072335;28;20098;-54
2022/10/11 05:30:49;;;;;;;17.42;8.15;;;11.30;99.90;;;;;;5072321;28;20551;-54
2022/10/11 05:33:15;;;;;;;16.88;8.80;;;11.30;99.90;;;;;;5072304;28;20468;-54
2022/10/11 05:35:41;;;;;;;17.95;9.35;;;11.30;99.90;;;;;;5054126;28;20051;-54
2022/10/11 05:38:07;;;;;;;19.55;10.57;;;11.30;99.90;;;;;;5072179;28;20021;-55
2022/10/11 05:40:32;;;;;;;19.15;10.38;;;11.30;99.90;;;;;;5068362;28;20380;-54
2022/10/11 05:42:58;;;;;;;20.45;9.48;;;11.30;99.90;;;;;;5051923;28;20102;-54
2022/10/11 05:45:24;;;;;;;14.75;9.75;;;11.40;99.90;;;;;;5052110;28;20029;-54
2022/10/11 05:47:49;;;;;;;17.90;9.40;;;11.40;99.90;;;;;;5033762;28;20021;-54
2022/10/11 05:50:15;;;;;;;18.30;10.68;;;11.50;99.90;;;;;;5051944;28;20491;-54
2022/10/11 05:52:41;;;;;;;16.20;9.50;;;11.40;99.90;;;;;;5051850;28;20111;-54
2022/10/11 05:55:07;;;;;;;18.48;9.20;;;11.40;99.90;;;;;;5051602;28;20108;-54
2022/10/11 05:57:33;;;;;;;21.10;9.63;;;11.50;99.90;;;;;;5051585;28;20026;-54
2022/10/11 05:59:59;;;;;;;16.65;8.95;;;11.50;99.90;;;;;;5051569;28;20637;-55
2022/10/11 06:02:24;;;;;;;17.83;10.23;;;11.50;99.90;;;;;;5051606;28;20743;-52
2022/10/11 06:04:50;;;;;;;15.57;9.93;;;11.50;99.90;;;;;;5051665;28;20033;-54
2022/10/11 06:07:16;;;;;;;18.73;8.80;;;11.50;99.90;;;;;;5051257;28;20428;-54
2022/10/11 06:09:41;;;;;;;15.52;8.68;;;11.50;99.90;;;;;;5051527;28;20044;-54
2022/10/11 06:12:07;;;;;;;27.23;10.25;;;11.60;99.90;;;;;;5059284;28;20024;-54
2022/10/11 06:14:33;;;;;;;17.13;9.23;;;11.60;99.90;;;;;;5059912;28;20104;-54
2022/10/11 06:16:58;;;;;;;16.70;9.88;;;11.60;99.90;;;;;;5061547;28;20028;-53
2022/10/11 06:19:24;;;;;;;16.88;9.43;;;11.60;99.90;;;;;;5043287;28;20036;-53
2022/10/11 06:21:50;;;;;;;15.13;8.68;;;11.50;99.90;;;;;;5060580;28;20393;-53
2022/10/11 06:24:16;;;;;;;18.38;9.02;;;11.50;99.90;;;;;;5062886;28;20037;-53
2022/10/11 06:26:41;;;;;;;16.63;9.45;;;11.40;99.90;;;;;;5047028;28;20468;-53
2022/10/11 06:29:08;;;;;;;15.43;9.30;;;11.40;99.90;;;;;;5062393;28;20492;-53
2022/10/11 06:31:34;;;;;;;21.00;10.10;;;11.40;99.90;;;;;;5055764;28;20412;-53
2022/10/11 06:33:59;;;;;;;24.77;10.18;;;11.40;99.90;;;;;;5049929;28;20031;-53
2022/10/11 06:36:25;;;;;;;20.45;10.63;;;11.50;99.90;;;;;;5031671;28;20429;-53
2022/10/11 06:38:52;;;;;;;22.13;11.88;;;11.60;99.90;;;;;;5050001;28;20037;-53
2022/10/11 06:41:23;;;;;;;21.73;11.70;;;11.60;99.90;;;;;;5053893;28;20032;-53
2022/10/11 06:43:49;;;;;;;21.48;11.65;;;11.70;99.90;;;;;;5060411;28;20037;-54
2022/10/11 06:46:16;;;;;;;18.92;11.80;;;11.70;99.90;;;;;;5061714;28;20033;-54
2022/10/11 06:48:44;;;;;;;24.75;12.63;;;11.80;99.90;;;;;;5049484;28;20028;-53
2022/10/11 06:51:11;;;;;;;30.45;12.35;;;11.80;99.90;;;;;;5049461;28;20055;-54
2022/10/11 06:53:36;;;;;;;25.00;12.63;;;11.90;99.90;;;;;;5031602;28;20024;-54
2022/10/11 06:56:04;;;;;;;22.98;11.98;;;11.90;99.90;;;;;;5049310;28;20029;-53
2022/10/11 06:58:30;;;;;;;20.10;11.07;;;11.90;99.90;;;;;;5049239;28;20044;-53
2022/10/11 07:01:00;;;;;;;22.27;12.20;;;11.90;99.90;;;;;;5031277;28;20805;-53
2022/10/11 07:03:27;;;;;;;19.63;10.70;;;11.90;99.90;;;;;;5054146;28;20519;-54
2022/10/11 07:05:52;;;;;;;18.08;11.57;;;12.00;99.90;;;;;;5048920;28;20063;-53
2022/10/11 07:08:18;;;;;;;19.60;11.35;;;12.10;99.90;;;;;;5049004;28;20025;-53
2022/10/11 07:10:44;;;;;;;21.90;11.45;;;12.10;99.90;;;;;;5049150;28;20056;-54
2022/10/11 07:13:09;;;;;;;18.30;11.05;;;12.20;99.90;;;;;;5049279;28;20437;-53
2022/10/11 07:15:40;;;;;;;24.90;12.18;;;12.30;99.90;;;;;;5050055;28;20543;-53
2022/10/11 07:18:06;;;;;;;30.35;12.75;;;12.40;99.90;;;;;;5050170;28;20033;-53
2022/10/11 07:20:31;;;;;;;22.23;13.35;;;12.40;99.90;;;;;;5049724;28;20024;-53
2022/10/11 07:22:57;;;;;;;20.98;13.50;;;12.50;99.90;;;;;;5050039;28;20036;-53
2022/10/11 07:25:23;;;;;;;21.17;11.70;;;12.70;99.90;;;;;;5049066;28;20057;-51
2022/10/11 07:27:48;;;;;;;19.90;12.32;;;12.90;99.90;;;;;;5048223;28;20443;-54
2022/10/11 07:30:14;;;;;;;19.75;11.05;;;13.10;99.90;;;;;;5046509;28;20116;-52
2022/10/11 07:32:40;;;;;;;21.20;11.77;;;13.30;99.90;;;;;;5048259;28;20051;-53
2022/10/11 07:35:05;;;;;;;22.30;11.20;;;13.40;99.90;;;;;;5048034;28;20052;-54
2022/10/11 07:37:32;;;;;;;18.52;11.23;;;13.50;99.90;;;;;;5048040;28;20517;-54
2022/10/11 07:39:58;;;;;;;20.98;11.40;;;13.50;99.90;;;;;;5048656;28;20469;-53
2022/10/11 07:42:23;;;;;;;17.10;10.57;;;13.40;99.90;;;;;;5048558;28;20103;-53
2022/10/11 07:44:49;;;;;;;22.85;12.07;;;13.40;99.90;;;;;;5059272;28;20136;-53
2022/10/11 07:47:15;;;;;;;21.63;11.75;;;13.50;99.90;;;;;;5050462;28;20537;-54
2022/10/11 07:49:40;;;;;;;21.52;12.35;;;13.50;99.90;;;;;;5067717;28;20123;-54
2022/10/11 07:52:06;;;;;;;18.45;12.35;;;13.50;99.90;;;;;;5067632;28;20460;-54
2022/10/11 07:54:32;;;;;;;22.40;13.18;;;13.60;99.90;;;;;;5067194;28;20029;-53
2022/10/11 07:56:58;;;;;;;25.80;11.68;;;13.60;99.90;;;;;;5048682;28;20422;-53
2022/10/11 07:59:25;;;;;;;25.40;11.75;;;13.50;99.90;;;;;;5060011;28;20131;-53
2022/10/11 08:01:50;;;;;;;20.65;11.35;;;13.60;99.90;;;;;;5068230;28;20025;-53
2022/10/11 08:04:16;;;;;;;17.17;10.52;;;13.60;99.90;;;;;;5047656;28;20066;-54
2022/10/11 08:06:42;;;;;;;17.20;11.05;;;13.60;99.90;;;;;;5056716;28;20031;-53
2022/10/11 08:09:08;;;;;;;22.10;11.45;;;13.60;99.90;;;;;;5051804;28;20088;-53
2022/10/11 08:11:36;;;;;;;21.85;13.93;;;13.50;99.90;;;;;;5048737;28;20614;-53
2022/10/11 08:14:07;;;;;;;19.10;11.98;;;13.50;99.90;;;;;;5029812;28;20028;-54
2022/10/11 08:16:37;;;;;;;18.40;12.00;;;13.50;99.90;;;;;;5047855;28;20036;-54
2022/10/11 08:19:04;;;;;;;19.08;12.38;;;13.40;99.90;;;;;;5047940;28;20037;-53
2022/10/11 08:21:30;;;;;;;22.38;13.68;;;13.40;99.90;;;;;;5049187;28;20571;-54
2022/10/11 08:23:55;;;;;;;19.33;14.00;;;13.20;99.90;;;;;;5048871;28;20053;-54
2022/10/11 08:26:21;;;;;;;18.83;13.05;;;13.20;99.90;;;;;;5052343;28;20083;-54
2022/10/11 08:28:47;;;;;;;26.08;13.77;;;13.20;99.90;;;;;;5067645;28;20079;-53
2022/10/11 08:31:14;;;;;;;23.88;13.50;;;13.10;99.90;;;;;;5068367;28;20587;-53
2022/10/11 08:33:40;;;;;;;;;;;13.10;99.90;;;;;;5069374;28;20090;-54
2022/10/11 08:36:07;;;;;;;27.95;15.73;;;13.10;99.90;;;;;;5069109;28;19904;-53
2022/10/11 08:38:35;;;;;;;26.83;16.00;;;13.00;99.90;;;;;;5068830;28;20066;-54
2022/10/11 08:41:01;;;;;;;21.75;16.17;;;13.00;99.90;;;;;;5068957;28;20078;-53
2022/10/11 08:43:58;;;;;;;26.40;15.35;;;13.00;99.90;;;;;;5068827;28;20471;-53
2022/10/11 08:46:29;;;;;;;21.33;14.05;;;12.90;99.90;;;;;;5024775;28;20050;-54
2022/10/11 08:48:56;;;;;;;28.40;14.15;;;12.90;99.90;;;;;;5046077;28;20531;-53
2022/10/11 08:51:46;;;;;;;21.63;15.10;;;12.90;99.90;;;;;;5046958;28;20039;-54
2022/10/11 08:54:30;;;;;;;22.55;15.27;;;12.90;99.90;;;;;;5045415;28;20108;-53
2022/10/11 08:56:56;;;;;;;19.65;13.90;;;12.80;99.90;;;;;;5049816;28;20017;-53
2022/10/11 08:59:30;;;;;;;25.13;14.07;;;12.80;99.90;;;;;;5051186;28;20069;-54
2022/10/11 09:02:05;;;;;;;22.25;13.70;;;12.80;99.90;;;;;;5051193;28;20106;-53
2022/10/11 09:04:31;;;;;;;21.55;14.45;;;12.80;99.90;;;;;;5049020;28;20044;-54
2022/10/11 09:07:15;;;;;;;28.83;16.15;;;12.80;99.90;;;;;;5051118;28;20021;-53
2022/10/11 09:09:49;;;;;;;26.48;16.73;;;12.70;99.90;;;;;;5057176;28;20388;-53
2022/10/11 09:12:18;;;;;;;27.30;16.67;;;12.70;99.90;;;;;;5050925;28;20493;-53
2022/10/11 09:15:08;;;;;;;24.02;14.48;;;12.80;99.90;;;;;;5050894;28;20029;-54
2022/10/11 09:17:58;;;;;;;22.10;14.25;;;12.80;99.90;;;;;;5049270;28;20017;-53
2022/10/11 09:20:42;;;;;;;23.75;14.75;;;13.00;99.90;;;;;;5051552;28;20029;-54
2022/10/11 09:23:16;;;;;;;21.92;14.13;;;13.00;99.90;;;;;;5052601;28;20135;-53
2022/10/11 09:25:51;;;;;;;22.73;13.80;;;13.00;99.90;;;;;;5052523;28;20036;-53
2022/10/11 09:28:34;;;;;;;21.27;14.02;;;13.00;99.90;;;;;;5052097;28;20060;-53
2022/10/11 09:31:00;;;;;;;20.05;13.88;;;13.00;99.90;;;;;;5051036;28;20086;-52
2022/10/11 09:33:41;;;;;;;23.65;15.60;;;13.00;99.90;;;;;;5050739;28;20029;-52
2022/10/11 09:36:22;;;;;;;22.38;15.63;;;13.00;99.90;;;;;;5050984;28;20033;-53
2022/10/11 09:38:57;;;;;;;23.20;15.77;;;13.00;99.90;;;;;;5033019;28;20059;-53
2022/10/11 09:41:35;;;;;;;31.02;19.65;;;12.90;99.90;;;;;;5033090;28;20542;-53
2022/10/11 09:44:00;;;;;;;;;;;12.90;99.90;;;;;;5051105;28;20044;-53
2022/10/11 09:46:42;;;;;;;27.52;16.70;;;12.90;99.90;;;;;;5052799;28;19908;-54
2022/10/11 09:49:14;;;;;;;26.35;18.10;;;12.90;99.90;;;;;;5070872;28;20020;-54
2022/10/11 09:51:45;;;;;;;32.70;17.65;;;12.90;99.90;;;;;;5052531;28;20028;-54
2022/10/11 09:54:11;;;;;;;30.70;18.98;;;12.90;99.90;;;;;;5067351;28;20426;-54
2022/10/11 09:56:42;;;;;;;27.95;17.08;;;12.80;99.90;;;;;;5048991;28;20025;-52
2022/10/11 09:59:27;;;;;;;26.70;15.68;;;12.80;99.90;;;;;;5032332;28;20792;-52
2022/10/11 10:02:05;;;;;;;23.40;14.32;;;12.70;99.90;;;;;;5030228;28;20060;-52
2022/10/11 10:04:31;;;;;;;19.35;14.35;;;12.80;99.90;;;;;;5047926;28;20037;-52
2022/10/11 10:07:11;;;;;;;23.88;16.67;;;12.80;99.90;;;;;;5061831;28;20479;-53
2022/10/11 10:09:37;;;;;;;22.80;15.55;;;12.70;99.90;;;;;;5062111;28;20025;-53
2022/10/11 10:12:11;;;;;;;22.25;14.98;;;12.70;99.90;;;;;;5060464;28;20021;-53
2022/10/11 10:14:37;;;;;;;25.40;16.30;;;12.70;99.90;;;;;;5041785;28;20021;-52
2022/10/11 10:17:15;;;;;;;22.00;14.50;;;12.80;99.90;;;;;;5043128;28;20040;-53
2022/10/11 10:19:54;;;;;;;;;;;12.80;99.90;;;;;;5058067;28;20021;-52
2022/10/11 10:22:27;;;;;;;22.60;14.15;;;12.80;99.90;;;;;;5056370;28;19908;-52
2022/10/11 10:24:53;;;;;;;25.50;13.70;;;12.80;99.90;;;;;;5050829;28;20044;-52
2022/10/11 10:27:28;;;;;;;26.07;14.57;;;12.90;99.90;;;;;;5051007;28;20134;-52
2022/10/11 10:30:14;;;;;;;20.48;13.50;;;13.00;99.90;;;;;;5050850;28;20025;-53
2022/10/11 10:32:49;;;;;;;21.52;13.60;;;13.00;99.90;;;;;;5050805;28;20028;-53
2022/10/11 10:35:30;;;;;;;26.25;14.95;;;13.10;99.90;;;;;;5050979;28;20025;-52
2022/10/11 10:37:55;;;;;;;23.05;12.50;;;13.10;99.90;;;;;;5050796;28;20100;-52
2022/10/11 10:40:26;;;;;;;27.10;16.00;;;13.20;99.90;;;;;;5050686;28;20595;-52
2022/10/11 10:42:52;;;;;;;29.92;17.27;;;13.20;99.90;;;;;;5050738;28;20060;-53
2022/10/11 10:45:19;;;;;;;21.92;13.50;;;13.30;99.90;;;;;;5057633;28;20036;-54
2022/10/11 10:47:57;;;;;;;16.00;9.40;;;13.30;99.90;;;;;;5070300;28;20549;-53
2022/10/11 10:50:30;;;;;;;17.00;9.10;;;13.30;99.90;;;;;;5070564;28;20113;-53
2022/10/11 10:53:33;;;;;;;14.20;9.10;;;13.40;99.90;;;;;;5051518;28;20358;-57
2022/10/11 10:56:29;;;;;;;21.05;10.07;;;13.40;99.90;;;;;;5046834;28;20385;-54
2022/10/11 10:59:03;;;;;;;19.80;10.70;;;13.30;99.90;;;;;;5028269;28;20606;-53
2022/10/11 11:01:43;;;;;;;14.43;9.57;;;13.40;99.90;;;;;;5052185;28;20032;-53
2022/10/11 11:04:25;;;;;;;15.27;10.23;;;13.40;99.90;;;;;;5068613;28;20072;-53
2022/10/11 11:07:08;;;;;;;13.90;10.45;;;13.30;99.90;;;;;;5048008;28;20514;-52
2022/10/11 11:10:04;;;;;;;16.85;9.95;;;13.40;99.90;;;;;;5028715;28;20385;-54
2022/10/11 11:13:05;;;;;;;22.05;10.82;;;13.50;99.90;;;;;;5046074;28;20515;-52
2022/10/11 11:15:39;;;;;;;18.95;9.68;;;13.60;99.90;;;;;;5033140;28;20067;-52
2022/10/11 11:18:34;;;;;;;16.13;9.32;;;13.90;99.90;;;;;;5030564;28;20031;-53
2022/10/11 11:21:00;;;;;;;11.55;7.65;;;14.40;99.90;;;;;;5041200;28;20036;-54
2022/10/11 11:23:55;;;;;;;17.60;10.43;;;15.10;99.90;;;;;;5058449;28;20395;-54
2022/10/11 11:26:33;;;;;;;10.02;7.82;;;15.40;99.90;;;;;;5056498;28;20029;-53
2022/10/11 11:29:12;;;;;;;13.98;6.60;;;15.60;99.90;;;;;;5034891;28;20080;-53
2022/10/11 11:32:07;;;;;;;12.80;7.60;;;15.60;99.90;;;;;;5050089;28;20021;-52
2022/10/11 11:34:40;;;;;;;11.05;6.25;;;15.40;99.90;;;;;;5049548;28;20521;-53
2022/10/11 11:37:15;;;;;;;18.20;8.80;;;15.40;99.90;;;;;;5053149;28;20036;-52
2022/10/11 11:39:49;;;;;;;19.70;8.35;;;15.30;99.90;;;;;;5054547;28;20731;-52
2022/10/11 11:42:44;;;;;;;17.25;7.85;;;15.50;99.90;;;;;;5053679;28;20040;-53
2022/10/11 11:45:32;;;;;;;13.90;6.55;;;15.60;99.90;;;;;;5050841;28;20127;-53
2022/10/11 11:48:02;;;;;;;19.77;8.45;;;15.70;99.90;;;;;;5049737;28;20115;-52
2022/10/11 11:50:38;;;;;;;15.77;7.90;;;15.90;99.90;;;;;;5049818;28;20031;-54
2022/10/11 11:53:12;;;;;;;10.93;5.43;;;16.20;99.90;;;;;;5049662;28;20040;-52
2022/10/11 11:55:57;;;;;;;9.20;4.85;;;16.60;99.90;;;;;;5029121;28;20022;-52
2022/10/11 11:58:44;;;;;;;7.75;4.20;;;16.90;99.90;;;;;;5029627;28;20388;-52
2022/10/11 12:01:40;;;;;;;11.07;4.68;;;17.10;99.90;;;;;;5027694;28;20111;-53
2022/10/11 12:04:36;;;;;;;12.73;4.65;;;17.50;99.90;;;;;;5062534;28;20119;-52
2022/10/11 12:07:09;;;;;;;10.05;4.07;;;17.80;99.90;;;;;;5055579;28;20050;-52
2022/10/11 12:09:37;;;;;;;10.80;3.95;;;17.60;99.90;;;;;;5051876;28;20064;-54
2022/10/11 12:12:08;;;;;;;9.18;3.95;;;17.90;99.90;;;;;;5049143;28;20159;-52
2022/10/11 12:14:36;;;;;;;7.28;4.15;;;18.40;99.90;;;;;;5049352;28;20044;-52
2022/10/11 12:17:11;;;;;;;;;;;18.30;99.40;;;;;;5049612;28;20031;-52
2022/10/11 12:19:39;;;;;;;10.43;4.05;;;18.60;99.90;;;;;;5048469;28;20391;-51
2022/10/11 12:22:35;;;;;;;9.30;3.47;;;18.70;99.90;;;;;;5046468;28;20127;-51
2022/10/11 12:25:21;;;;;;;8.68;4.00;;;19.00;99.40;;;;;;5047790;28;20029;-51
2022/10/11 12:27:52;;;;;;;9.77;4.07;;;19.20;99.90;;;;;;5048303;28;20099;-52
2022/10/11 12:30:46;;;;;;;11.48;4.63;;;19.20;98.20;;;;;;5049028;28;20025;-51
2022/10/11 12:33:16;;;;;;;6.70;4.10;;;19.10;97.50;;;;;;5065049;28;20032;-51
2022/10/11 12:35:54;;;;;;;6.30;3.10;;;19.30;96.70;;;;;;5068903;28;20496;-52
2022/10/11 12:38:22;;;;;;;;;;;19.30;95.30;;;;;;5069320;28;20056;-52
2022/10/11 12:40:52;;;;;;;8.85;3.42;;;19.40;93.10;;;;;;5064958;28;20291;-52
2022/10/11 12:43:17;;;;;;;7.53;2.75;;;19.50;95.20;;;;;;5061506;28;20071;-52
2022/10/11 12:45:46;;;;;;;5.85;2.10;;;19.60;93.20;;;;;;5059405;28;20037;-52
2022/10/11 12:49:03;;;;;;;7.80;2.85;;;19.50;89.50;;;;;;5059992;28;20029;-52
2022/10/11 12:51:51;;;;;;;6.57;2.28;;;19.40;86.20;;;;;;4964515;28;20074;-52
2022/10/11 12:54:51;;;;;;;8.57;3.15;;;19.50;90.80;;;;;;5063623;28;20062;-52
2022/10/11 12:57:41;;;;;;;7.43;3.30;;;19.40;89.50;;;;;;5068748;28;20032;-52
2022/10/11 13:00:19;;;;;;;11.50;3.53;;;19.40;88.70;;;;;;5065827;28;20091;-53